Weather History for K4O4 - December, 2013

Change the Weather History Date:

Sunday, December 22, 2013

  Actual Average (KDEQ) Record (KDEQ)
Temperature  
Mean Temperature 36 °F 42 °F  
Max Temperature 41 °F 54 °F 72 °F (1974)
Min Temperature 32 °F 30 °F 6 °F (1989)
Degree Days  
Heating Degree Days 28 23  
Month to date heating degree days 475  
Since 1 July heating degree days 1001  
Cooling Degree Days 0 0  
Month to date cooling degree days 0  
Year to date cooling degree days 1941  
Moisture  
Dew Point 31 °F    
Average Humidity 85    
Maximum Humidity 100    
Minimum Humidity 75    
Precipitation  
Precipitation 0.00 in 0.16 in 1.57 in (1968)
Month to date precipitation 2.83  
Year to date precipitation 47.46  
Snow  
Snow 0.00 in - - ()
Month to date snowfall  
Since 1 July snowfall  
Snow Depth -    
Sea Level Pressure  
Sea Level Pressure 30.09 in    
Wind  
Wind Speed 9 mph (NW)    
Max Wind Speed 16 mph    
Max Gust Speed 21 mph    
Visibility 9 miles    
Events      
T = Trace of Precipitation, MM = Missing Value Source: NWS Daily Summary

Daily Weather History Graph

Daily Weather History Graph

Search for Another Location

Airport or City:

Trip Planner

Search our weather history database for the weather conditions in past years. The results will help you decide how hot, cold, wet, or windy it might be!

Date:

Astronomy

Dec. 22, 2013 Rise Set
Actual Time 7:21 AM CST 5:15 PM CST
Civil Twilight 6:53 AM CST 5:42 PM CST
Nautical Twilight 6:22 AM CST 6:14 PM CST
Astronomical Twilight 5:51 AM CST 6:44 PM CST
Moon 10:15 PM CST (12/22) 10:29 AM CST (12/22)
Length of Visible Light 10h 49m
Length of Day
9h 53m
Waning Gibbous, 76% of the Moon is Illuminated
Dec 22
Waning Gibbous
Dec 25
Last Quarter
Jan 1
New
Jan 7
First Quarter
Jan 15
Full

Hourly Weather History & Observations

Time (CST) Temp. Windchill Dew Point Humidity Pressure Visibility Wind Dir Wind Speed Gust Speed Precip Events Conditions
12:15 AM 41.0 °F 36.4 °F 41.0 °F 100% 29.78 in 1.8 mi NW 6.9 mph - N/A   Overcast
12:35 AM 41.0 °F 37.1 °F 41.0 °F 100% 29.79 in 3.0 mi NW 5.8 mph - N/A   Overcast
12:55 AM 41.0 °F 38.0 °F 41.0 °F 100% 29.80 in 3.0 mi WNW 4.6 mph - N/A   Overcast
1:15 AM 41.0 °F 37.1 °F 41.0 °F 100% 29.80 in 4.0 mi NW 5.8 mph - N/A   Overcast
1:35 AM 41.0 °F 37.1 °F 41.0 °F 100% 29.81 in 1.8 mi NW 5.8 mph - N/A   Overcast
1:55 AM 41.0 °F 35.2 °F 39.2 °F 93% 29.83 in 2.5 mi NW 9.2 mph - N/A   Overcast
2:15 AM 41.0 °F 35.2 °F 37.4 °F 87% 29.84 in 2.5 mi NW 9.2 mph - N/A   Overcast
2:35 AM 39.2 °F 34.2 °F 37.4 °F 93% 29.86 in 2.5 mi NW 6.9 mph - N/A   Overcast
2:55 AM 39.2 °F 33.6 °F 37.4 °F 93% 29.86 in 5.0 mi WNW 8.1 mph - N/A   Overcast
3:15 AM 39.2 °F 33.6 °F 37.4 °F 93% 29.87 in 3.0 mi WNW 8.1 mph - N/A   Overcast
3:35 AM 39.2 °F 34.2 °F 37.4 °F 93% 29.88 in 10.0 mi WNW 6.9 mph - N/A   Overcast
3:55 AM 37.4 °F 30.8 °F 37.4 °F 100% 29.89 in 10.0 mi WNW 9.2 mph - N/A   Overcast
4:15 AM 37.4 °F 31.4 °F 37.4 °F 100% 29.89 in 10.0 mi NW 8.1 mph - N/A   Overcast
4:35 AM 37.4 °F 32.1 °F 35.6 °F 93% 29.89 in 10.0 mi NW 6.9 mph - N/A   Overcast
4:55 AM 37.4 °F 31.4 °F 35.6 °F 93% 29.90 in 10.0 mi WNW 8.1 mph - N/A   Overcast
5:15 AM 37.4 °F 31.4 °F 35.6 °F 93% 29.91 in 10.0 mi WNW 8.1 mph - N/A   Overcast
5:35 AM 37.4 °F 30.3 °F 35.6 °F 93% 29.93 in 10.0 mi WNW 10.4 mph - N/A   Overcast
5:55 AM 37.4 °F 28.9 °F 35.6 °F 93% 29.93 in 10.0 mi WNW 13.8 mph 19.6 mph N/A   Overcast
6:15 AM 35.6 °F 27.1 °F 33.8 °F 93% 29.94 in 10.0 mi WNW 12.7 mph - N/A   Overcast
6:35 AM 35.6 °F 29.9 °F 33.8 °F 93% 29.95 in 10.0 mi WNW 6.9 mph - N/A   Overcast
6:55 AM 35.6 °F 28.6 °F 32.0 °F 87% 29.96 in 10.0 mi West 9.2 mph - N/A   Overcast
7:15 AM 35.6 °F 28.6 °F 32.0 °F 87% 29.96 in 10.0 mi West 9.2 mph - N/A   Overcast
7:35 AM 33.8 °F 26.4 °F 32.0 °F 93% 29.97 in 10.0 mi WNW 9.2 mph - N/A   Overcast
7:55 AM 33.8 °F 27.0 °F 32.0 °F 93% 29.99 in 10.0 mi WNW 8.1 mph - N/A   Overcast
8:15 AM 33.8 °F 27.7 °F 32.0 °F 93% 29.99 in 10.0 mi WNW 6.9 mph - N/A   Overcast
8:35 AM 33.8 °F 27.7 °F 32.0 °F 93% 30.01 in 10.0 mi WNW 6.9 mph - N/A   Overcast
8:55 AM 35.6 °F 28.6 °F 32.0 °F 87% 30.02 in 10.0 mi WNW 9.2 mph - N/A   Overcast
9:15 AM 33.8 °F 24.8 °F 30.2 °F 87% 30.04 in 10.0 mi NW 12.7 mph - N/A   Overcast
9:35 AM 33.8 °F 25.3 °F 30.2 °F 87% 30.06 in 10.0 mi WNW 11.5 mph 16.1 mph N/A   Overcast
9:55 AM 33.8 °F 24.3 °F 30.2 °F 87% 30.07 in 10.0 mi WNW 13.8 mph 19.6 mph N/A   Overcast
10:15 AM 33.8 °F 23.5 °F 30.2 °F 87% 30.08 in 10.0 mi WNW 16.1 mph 19.6 mph N/A   Overcast
10:35 AM 33.8 °F 26.4 °F 30.2 °F 87% 30.09 in 10.0 mi WNW 9.2 mph - N/A   Overcast
10:55 AM 33.8 °F 25.8 °F 30.2 °F 87% 30.10 in 10.0 mi NW 10.4 mph 17.3 mph N/A   Overcast
11:15 AM 33.8 °F 25.8 °F 28.4 °F 81% 30.11 in 10.0 mi NW 10.4 mph - N/A   Overcast
11:35 AM 33.8 °F 25.8 °F 28.4 °F 81% 30.11 in 10.0 mi North 10.4 mph 19.6 mph N/A   Overcast
11:55 AM 33.8 °F 25.3 °F 28.4 °F 81% 30.10 in 10.0 mi NW 11.5 mph 16.1 mph N/A   Mostly Cloudy
12:15 PM 33.8 °F 24.8 °F 28.4 °F 81% 30.10 in 10.0 mi NW 12.7 mph 16.1 mph N/A   Mostly Cloudy
12:35 PM 33.8 °F 24.8 °F 28.4 °F 81% 30.10 in 10.0 mi NW 12.7 mph - N/A   Mostly Cloudy
12:55 PM 33.8 °F 25.3 °F 28.4 °F 81% 30.10 in 10.0 mi NW 11.5 mph 19.6 mph N/A   Overcast
1:15 PM 33.8 °F 24.3 °F 28.4 °F 81% 30.11 in 10.0 mi NW 13.8 mph 17.3 mph N/A   Mostly Cloudy
1:35 PM 33.8 °F 23.9 °F 28.4 °F 81% 30.12 in 10.0 mi NW 15.0 mph 19.6 mph N/A   Mostly Cloudy
1:55 PM 33.8 °F 25.3 °F 28.4 °F 81% 30.12 in 10.0 mi WNW 11.5 mph - N/A   Mostly Cloudy
2:15 PM 33.8 °F 24.3 °F 28.4 °F 81% 30.13 in 10.0 mi NW 13.8 mph 17.3 mph N/A   Mostly Cloudy
2:35 PM 33.8 °F 24.3 °F 28.4 °F 81% 30.14 in 10.0 mi NW 13.8 mph 17.3 mph N/A   Mostly Cloudy
2:55 PM 33.8 °F 24.8 °F 28.4 °F 81% 30.14 in 10.0 mi NW 12.7 mph 18.4 mph N/A   Mostly Cloudy
3:15 PM 33.8 °F 24.8 °F 28.4 °F 81% 30.15 in 10.0 mi NNW 12.7 mph 17.3 mph N/A   Mostly Cloudy
3:35 PM 33.8 °F 26.4 °F 28.4 °F 81% 30.17 in 10.0 mi NW 9.2 mph - N/A   Mostly Cloudy
3:55 PM 33.8 °F 23.5 °F 28.4 °F 81% 30.18 in 10.0 mi NW 16.1 mph 19.6 mph N/A   Mostly Cloudy
4:15 PM 33.8 °F 25.3 °F 26.6 °F 75% 30.19 in 10.0 mi NW 11.5 mph - N/A   Mostly Cloudy
4:35 PM 33.8 °F 25.3 °F 26.6 °F 75% 30.20 in 10.0 mi NNW 11.5 mph 18.4 mph N/A   Mostly Cloudy
4:55 PM 33.8 °F 25.3 °F 26.6 °F 75% 30.22 in 10.0 mi NW 11.5 mph 20.7 mph N/A   Mostly Cloudy
5:15 PM 32.0 °F 23.0 °F 26.6 °F 80% 30.23 in 10.0 mi NW 11.5 mph 16.1 mph N/A   Overcast
5:35 PM 32.0 °F 23.6 °F 26.6 °F 80% 30.24 in 10.0 mi NW 10.4 mph 18.4 mph N/A   Mostly Cloudy
5:55 PM 32.0 °F 22.1 °F 26.6 °F 80% 30.24 in 10.0 mi NNW 13.8 mph 19.6 mph N/A   Mostly Cloudy
6:15 PM 32.0 °F 22.1 °F 26.6 °F 80% 30.26 in 10.0 mi NNW 13.8 mph - N/A   Mostly Cloudy
6:35 PM 32.0 °F 24.2 °F 26.6 °F 80% 30.27 in 10.0 mi NNW 9.2 mph - N/A   Mostly Cloudy
6:55 PM 32.0 °F 22.5 °F 26.6 °F 80% 30.27 in 10.0 mi North 12.7 mph 19.6 mph N/A   Mostly Cloudy
7:15 PM 32.0 °F 22.5 °F 26.6 °F 80% 30.29 in 10.0 mi North 12.7 mph 17.3 mph N/A   Mostly Cloudy
7:35 PM 32.0 °F 23.6 °F 26.6 °F 80% 30.30 in 10.0 mi North 10.4 mph 18.4 mph N/A   Mostly Cloudy
7:55 PM 32.0 °F 22.5 °F 24.8 °F 75% 30.30 in 10.0 mi NNW 12.7 mph - N/A   Overcast
8:15 PM 32.0 °F 24.2 °F 24.8 °F 75% 30.30 in 10.0 mi NNW 9.2 mph - N/A   Mostly Cloudy
8:35 PM 32.0 °F 24.2 °F 26.6 °F 80% 30.32 in 10.0 mi NNW 9.2 mph - N/A   Mostly Cloudy
8:55 PM 32.0 °F 24.2 °F 26.6 °F 80% 30.32 in 10.0 mi NNW 9.2 mph - N/A   Mostly Cloudy
9:15 PM 32.0 °F 23.6 °F 26.6 °F 80% 30.32 in 10.0 mi NNW 10.4 mph - N/A   Mostly Cloudy
9:35 PM 32.0 °F 24.8 °F 24.8 °F 75% 30.33 in 10.0 mi NNW 8.1 mph - N/A   Mostly Cloudy
9:55 PM 32.0 °F 23.6 °F 24.8 °F 75% 30.34 in 10.0 mi NNW 10.4 mph - N/A   Mostly Cloudy
10:15 PM 32.0 °F 24.2 °F 24.8 °F 75% 30.35 in 10.0 mi North 9.2 mph - N/A   Mostly Cloudy
10:35 PM 32.0 °F 25.6 °F 24.8 °F 75% 30.36 in 10.0 mi NNW 6.9 mph - N/A   Mostly Cloudy
10:55 PM 32.0 °F 25.6 °F 24.8 °F 75% 30.36 in 10.0 mi NNW 6.9 mph - N/A   Mostly Cloudy
11:15 PM 32.0 °F 24.8 °F 24.8 °F 75% 30.37 in 10.0 mi NNW 8.1 mph - N/A   Mostly Cloudy
11:35 PM 32.0 °F 26.4 °F 24.8 °F 75% 30.37 in 10.0 mi NNW 5.8 mph - N/A   Mostly Cloudy
11:55 PM 32.0 °F 27.5 °F 24.8 °F 75% 30.37 in 10.0 mi NNW 4.6 mph - N/A   Mostly Cloudy